Time,TemperatureF,DewpointF,PressureIn,WindDirection,WindDirectionDegrees,WindSpeedMPH,WindSpeedGustMPH,Humidity,HourlyPrecipIn,Conditions,Clouds,dailyrainin,SolarRadiationWatts/m^2,SoftwareType,DateUTC
2017-03-27 00:04:00,53.2,52.3,29.91,SW,225,0.0,0.0,97,0.00,,,0.00,0,HR-IXPWINDi_r2_v1.2.,2017-03-27 04:04:00,
2017-03-27 00:09:00,53.1,52.2,29.91,SW,225,0.0,0.0,97,0.00,,,0.00,0,HR-IXPWINDi_r2_v1.2.,2017-03-27 04:09:00,
2017-03-27 00:14:00,53.1,52.2,29.91,SW,226,0.0,0.0,97,0.00,,,0.00,0,HR-IXPWINDi_r2_v1.2.,2017-03-27 04:14:00,
2017-03-27 00:19:00,53.2,52.3,29.91,SW,229,0.0,0.0,97,0.00,,,0.00,0,HR-IXPWINDi_r2_v1.2.,2017-03-27 04:19:00,
2017-03-27 00:24:00,53.1,52.2,29.91,SW,230,0.0,0.0,97,0.00,,,0.00,0,HR-IXPWINDi_r2_v1.2.,2017-03-27 04:24:00,
2017-03-27 00:29:00,53.4,52.5,29.91,SW,235,0.0,0.0,97,0.00,,,0.00,0,HR-IXPWINDi_r2_v1.2.,2017-03-27 04:29:00,
2017-03-27 00:34:00,53.6,52.4,29.91,WSW,240,0.0,0.0,96,0.00,,,0.00,0,HR-IXPWINDi_r2_v1.2.,2017-03-27 04:34:00,
2017-03-27 00:39:00,53.3,52.1,29.91,WSW,240,0.0,0.0,96,0.00,,,0.00,0,HR-IXPWINDi_r2_v1.2.,2017-03-27 04:39:00,
2017-03-27 00:44:00,53.8,52.9,29.91,WSW,248,0.0,0.0,97,0.00,,,0.00,0,HR-IXPWINDi_r2_v1.2.,2017-03-27 04:44:00,
2017-03-27 00:49:00,53.9,52.7,29.91,WSW,257,0.0,0.0,96,0.00,,,0.00,0,HR-IXPWINDi_r2_v1.2.,2017-03-27 04:49:00,
2017-03-27 00:54:00,53.9,52.4,29.91,WSW,246,0.0,0.0,95,0.00,,,0.00,0,HR-IXPWINDi_r2_v1.2.,2017-03-27 04:54:00,
2017-03-27 00:59:00,53.8,52.3,29.91,WSW,242,0.0,0.0,95,0.00,,,0.00,0,HR-IXPWINDi_r2_v1.2.,2017-03-27 04:59:00,
2017-03-27 01:04:00,53.8,52.3,29.91,WSW,240,0.0,0.0,95,0.00,,,0.00,0,HR-IXPWINDi_r2_v1.2.,2017-03-27 05:04:00,
2017-03-27 01:09:00,53.7,52.2,29.90,WSW,242,0.0,0.0,95,0.00,,,0.00,0,HR-IXPWINDi_r2_v1.2.,2017-03-27 05:09:00,
2017-03-27 01:14:00,53.6,52.1,29.90,WSW,244,0.0,0.0,95,0.00,,,0.00,0,HR-IXPWINDi_r2_v1.2.,2017-03-27 05:14:00,
2017-03-27 01:19:00,53.5,52.0,29.90,WSW,245,0.0,0.0,95,0.00,,,0.00,0,HR-IXPWINDi_r2_v1.2.,2017-03-27 05:19:00,
2017-03-27 01:24:00,53.4,51.9,29.90,WSW,242,0.0,0.0,95,0.00,,,0.00,0,HR-IXPWINDi_r2_v1.2.,2017-03-27 05:24:00,
2017-03-27 01:29:00,53.4,51.9,29.90,WSW,249,0.0,0.0,95,0.00,,,0.00,0,HR-IXPWINDi_r2_v1.2.,2017-03-27 05:29:00,
2017-03-27 01:34:00,53.3,51.8,29.90,WSW,248,0.0,0.0,95,0.00,,,0.00,0,HR-IXPWINDi_r2_v1.2.,2017-03-27 05:34:00,
2017-03-27 01:39:00,53.2,51.7,29.90,WSW,248,0.0,0.0,95,0.00,,,0.00,0,HR-IXPWINDi_r2_v1.2.,2017-03-27 05:39:00,
2017-03-27 01:40:00,53.2,51.7,29.90,WSW,248,0.0,0.0,95,0.00,,,0.00,0,HR-IXPWINDi_r2_v1.2.,2017-03-27 05:40:00,
2017-03-27 01:45:00,53.2,51.7,29.90,WSW,238,0.0,0.0,95,0.00,,,0.00,0,HR-IXPWINDi_r2_v1.2.,2017-03-27 05:45:00,
2017-03-27 01:50:00,52.8,51.1,29.90,WSW,237,0.0,0.0,94,0.00,,,0.00,0,HR-IXPWINDi_r2_v1.2.,2017-03-27 05:50:00,
2017-03-27 01:55:00,52.4,50.9,29.90,SW,235,0.0,0.0,95,0.00,,,0.00,0,HR-IXPWINDi_r2_v1.2.,2017-03-27 05:55:00,
2017-03-27 02:00:00,51.9,50.2,29.90,SW,234,0.0,0.0,94,0.00,,,0.00,0,HR-IXPWINDi_r2_v1.2.,2017-03-27 06:00:00,
2017-03-27 02:05:00,51.6,50.1,29.89,SW,234,0.0,0.0,95,0.00,,,0.00,0,HR-IXPWINDi_r2_v1.2.,2017-03-27 06:05:00,
2017-03-27 02:10:00,51.7,50.2,29.89,SW,234,0.0,0.0,95,0.00,,,0.00,0,HR-IXPWINDi_r2_v1.2.,2017-03-27 06:10:00,
2017-03-27 02:15:00,51.8,50.3,29.89,SW,234,0.0,0.0,95,0.00,,,0.00,0,HR-IXPWINDi_r2_v1.2.,2017-03-27 06:15:00,
2017-03-27 02:20:00,51.5,50.0,29.89,SW,232,0.0,0.0,95,0.00,,,0.00,0,HR-IXPWINDi_r2_v1.2.,2017-03-27 06:20:00,
2017-03-27 02:25:00,51.2,49.8,29.89,SW,232,0.0,0.0,95,0.00,,,0.00,0,HR-IXPWINDi_r2_v1.2.,2017-03-27 06:25:00,
2017-03-27 02:30:00,51.0,49.6,29.89,SW,232,0.0,0.0,95,0.00,,,0.00,0,HR-IXPWINDi_r2_v1.2.,2017-03-27 06:30:00,
2017-03-27 02:35:00,50.9,49.7,29.90,SW,232,0.0,0.0,96,0.00,,,0.00,0,HR-IXPWINDi_r2_v1.2.,2017-03-27 06:35:00,
2017-03-27 02:40:00,50.7,49.3,29.90,SW,232,0.0,0.0,95,0.00,,,0.00,0,HR-IXPWINDi_r2_v1.2.,2017-03-27 06:40:00,
2017-03-27 02:45:00,50.5,49.3,29.90,SW,232,0.0,0.0,96,0.00,,,0.00,0,HR-IXPWINDi_r2_v1.2.,2017-03-27 06:45:00,
2017-03-27 02:46:00,50.5,49.3,29.90,SW,232,0.0,0.0,96,0.00,,,0.00,0,HR-IXPWINDi_r2_v1.2.,2017-03-27 06:46:00,
2017-03-27 02:51:00,50.3,49.1,29.89,SW,232,0.0,0.0,96,0.00,,,0.00,0,HR-IXPWINDi_r2_v1.2.,2017-03-27 06:51:00,
2017-03-27 02:56:00,50.0,48.6,29.90,SW,232,0.0,0.0,95,0.00,,,0.00,0,HR-IXPWINDi_r2_v1.2.,2017-03-27 06:56:00,
2017-03-27 03:01:00,49.8,48.6,29.90,SW,232,0.0,0.0,96,0.00,,,0.00,0,HR-IXPWINDi_r2_v1.2.,2017-03-27 07:01:00,
2017-03-27 03:06:00,49.7,48.5,29.90,SW,232,0.0,0.0,96,0.00,,,0.00,0,HR-IXPWINDi_r2_v1.2.,2017-03-27 07:06:00,
2017-03-27 03:11:00,49.8,48.6,29.90,SW,232,0.0,0.0,96,0.00,,,0.00,0,HR-IXPWINDi_r2_v1.2.,2017-03-27 07:11:00,
2017-03-27 03:16:00,49.8,48.6,29.90,SW,232,0.0,0.0,96,0.00,,,0.00,0,HR-IXPWINDi_r2_v1.2.,2017-03-27 07:16:00,
2017-03-27 03:21:00,49.6,48.4,29.90,SW,232,0.0,0.0,96,0.00,,,0.00,0,HR-IXPWINDi_r2_v1.2.,2017-03-27 07:21:00,
2017-03-27 03:26:00,49.5,48.3,29.90,SW,232,0.0,0.0,96,0.00,,,0.00,0,HR-IXPWINDi_r2_v1.2.,2017-03-27 07:26:00,
2017-03-27 03:31:00,49.2,48.0,29.90,SW,232,0.0,0.0,96,0.00,,,0.00,0,HR-IXPWINDi_r2_v1.2.,2017-03-27 07:31:00,
2017-03-27 03:36:00,49.5,48.6,29.90,SW,232,0.0,0.0,97,0.00,,,0.00,0,HR-IXPWINDi_r2_v1.2.,2017-03-27 07:36:00,
2017-03-27 03:41:00,49.7,48.8,29.90,SW,231,0.0,0.0,97,0.00,,,0.00,0,HR-IXPWINDi_r2_v1.2.,2017-03-27 07:41:00,
2017-03-27 03:46:00,49.5,48.6,29.90,SW,231,0.0,0.0,97,0.00,,,0.00,0,HR-IXPWINDi_r2_v1.2.,2017-03-27 07:46:00,
2017-03-27 03:51:00,49.3,48.1,29.90,SW,231,0.0,0.0,96,0.00,,,0.00,0,HR-IXPWINDi_r2_v1.2.,2017-03-27 07:51:00,
2017-03-27 03:56:00,49.2,48.0,29.90,SW,231,0.0,0.0,96,0.00,,,0.00,0,HR-IXPWINDi_r2_v1.2.,2017-03-27 07:56:00,
2017-03-27 04:01:00,49.1,47.9,29.90,SW,231,0.0,0.0,96,0.00,,,0.00,0,HR-IXPWINDi_r2_v1.2.,2017-03-27 08:01:00,
2017-03-27 04:06:00,49.2,48.3,29.90,SW,231,0.0,0.0,97,0.00,,,0.00,0,HR-IXPWINDi_r2_v1.2.,2017-03-27 08:06:00,
2017-03-27 04:11:00,49.0,48.1,29.90,SW,231,0.0,0.0,97,0.00,,,0.00,0,HR-IXPWINDi_r2_v1.2.,2017-03-27 08:11:00,
2017-03-27 04:16:00,48.8,47.9,29.90,SW,231,0.0,0.0,97,0.00,,,0.00,0,HR-IXPWINDi_r2_v1.2.,2017-03-27 08:16:00,
2017-03-27 04:21:00,48.7,47.5,29.90,SW,231,0.0,0.0,96,0.00,,,0.00,0,HR-IXPWINDi_r2_v1.2.,2017-03-27 08:21:00,
2017-03-27 04:26:00,48.7,47.8,29.90,SW,231,0.0,0.0,97,0.00,,,0.00,0,HR-IXPWINDi_r2_v1.2.,2017-03-27 08:26:00,
2017-03-27 04:31:00,48.6,47.7,29.90,SW,231,0.0,0.0,97,0.00,,,0.00,0,HR-IXPWINDi_r2_v1.2.,2017-03-27 08:31:00,
2017-03-27 04:36:00,48.2,47.3,29.90,SW,231,0.0,0.0,97,0.00,,,0.00,0,HR-IXPWINDi_r2_v1.2.,2017-03-27 08:36:00,
2017-03-27 04:41:00,48.9,48.0,29.90,SW,229,0.0,0.0,97,0.00,,,0.00,0,HR-IXPWINDi_r2_v1.2.,2017-03-27 08:41:00,
2017-03-27 04:46:00,49.1,48.2,29.90,SW,229,0.0,0.0,97,0.00,,,0.00,0,HR-IXPWINDi_r2_v1.2.,2017-03-27 08:46:00,
2017-03-27 04:51:00,48.8,47.9,29.90,SW,229,0.0,0.0,97,0.00,,,0.00,0,HR-IXPWINDi_r2_v1.2.,2017-03-27 08:51:00,
2017-03-27 04:56:00,48.9,48.0,29.91,SW,229,0.0,0.0,97,0.00,,,0.00,0,HR-IXPWINDi_r2_v1.2.,2017-03-27 08:56:00,